Main page
METAR-TAF:

METAR-TAF

Airports :

Kuwait City, Kuwait

Kuwait International Airport

latitude: 29-13N, longitude: 047-59E, elevation: 55 m

Current weather observation

The report was made 47 minutes ago, at 18:14 UTC
Wind 17 kt from the West
Temperature 20°C
Humidity 28%
Pressure 1013 hPa
Visibility: 0500 m

METAR: OKBK 191814Z 28017KT 0500 R33L/M0025N R33R/1300D DS NSC 20/01 Q1013 NOSIG

Time: 22:01 (19:01 UTC)

Forecast

The report was made 2 hours and 16 minutes ago, at 16:45 UTC
Forecast valid from 19 at 18 UTC to 20 at 24 UTC
Wind 20 kt from the South/Southeast with gusts up to 30 kt
Visibility: 2000 m
Blowing dust
Becoming
from 19 at 20 UTC to 19 at 22 UTC
Wind 15 kt from the North/Northwest with gusts up to 25 kt
Temporary
from 19 at 18 UTC to 20 at 03 UTC
Visibility: 0500 m
Few clouds at a height of 3000 ft

TAF: OKBK 191645Z 1918/2024 15020G30KT 2000 BLDU NSC BECMG 1920/1922 33015G25KT TEMPO 1918/2003 0500 DS FEW030

Weather observations and forecasts of more than 4000 airports (METAR and TAF reports).

The available stations are represented by yellow and red dots on the map.

Hover mouse over dot to see the name of the station.

Then click to see weather observations and forecasts.

To change the map : click on the green buttons with a black cross to zoom in, on the green button with a dash to zoom out, or on the green arrows for adjacent maps.


METAR-TAF: